Sunday, October 22, 2017, 8:28 PM EDT
Back to Local

KUCP, New Castle, New Castle Municipal Airport

Location: Edinburg, PA, United States Lat: 41.025
Local Time: 8:28 PM EDT ( 0:28 GMT) Lon: -80.413
Time Zone: US/Eastern Elev: 1072 ft

Show me the last for .
Show Decoded

2017-10-22 19:56 METAR KUCP 222356Z AUTO 00000KT 10SM CLR 17/11 A3018 RMK AO2 SLP237 T01720111
                 10256 20167 50001 =
2017-10-22 18:56 METAR KUCP 222256Z AUTO 14003KT 10SM CLR 20/11 A3019 RMK AO2 SLP238 T02000106 =
2017-10-22 17:56 METAR KUCP 222156Z AUTO 00000KT 10SM CLR 22/11 A3018 RMK AO2 SLP234 T02170106 =
2017-10-22 16:56 METAR KUCP 222056Z AUTO 14006KT 10SM CLR 24/11 A3018 RMK AO2 SLP232 T02440106
                 56020 =
2017-10-22 15:56 METAR KUCP 221956Z AUTO 14007KT 10SM CLR 26/11 A3020 RMK AO2 SLP238 T02560106 =
2017-10-22 14:56 METAR KUCP 221856Z AUTO VRB03KT 10SM CLR 24/12 A3022 RMK AO2 SLP245 T02390117 =
2017-10-22 13:56 METAR KUCP 221756Z AUTO VRB05KT 10SM CLR 24/11 A3024 RMK AO2 SLP252 T02390111
                 10239 20061 58017 =
2017-10-22 12:56 METAR KUCP 221656Z AUTO VRB04KT 10SM CLR 23/12 A3027 RMK AO2 SLP262 T02280117 =
2017-10-22 11:56 METAR KUCP 221556Z AUTO VRB06KT 10SM CLR 22/12 A3029 RMK AO2 SLP271 T02170117 =
2017-10-22 10:56 METAR KUCP 221456Z AUTO VRB03KT 10SM CLR 18/12 A3029 RMK AO2 SLP272 T01780122
                 58001 =
2017-10-22 09:56 METAR KUCP 221356Z AUTO 00000KT 10SM CLR 13/12 A3031 RMK AO2 SLP278 T01330122 =
2017-10-22 08:56 METAR KUCP 221256Z AUTO 00000KT 4SM BR CLR 11/11 A3031 RMK AO2 SLP278 T01060106
                 =
2017-10-22 08:54 METAR KUCP 221254Z AUTO 00000KT 3SM BR CLR 10/10 A3031 RMK AO2 =
2017-10-22 07:56 METAR KUCP 221156Z AUTO 00000KT 1 1/4SM BR CLR 07/07 A3029 RMK AO2 SLP275
                 T00670067 10106 20061 56002 =
2017-10-22 07:54 METAR KUCP 221154Z AUTO 00000KT 1 1/4SM BR CLR 06/06 A3029 RMK AO2 =
2017-10-22 07:51 METAR KUCP 221151Z AUTO 00000KT 3/4SM BR VV003 06/06 A3029 RMK AO2 RVRNO =
2017-10-22 07:15 METAR KUCP 221115Z AUTO 00000KT 1/4SM FG BKN002 07/07 A3029 RMK AO2 RVRNO =
2017-10-22 06:59 METAR KUCP 221059Z AUTO 00000KT 1/2SM FG VV002 07/07 A3029 RMK AO2 VIS 1/4V3
                 RVRNO =
2017-10-22 06:56 METAR KUCP 221056Z AUTO 00000KT 1SM BR VV002 07/07 A3029 RMK AO2 VIS 1/2V3
                 SLP275 T00670067 RVRNO =
2017-10-22 06:52 METAR KUCP 221052Z AUTO 28003KT 1SM BR CLR 07/07 A3029 RMK AO2 VIS 1/2V2 1/2
                 RVRNO =
2017-10-22 06:31 METAR KUCP 221031Z AUTO 00000KT 3/4SM BR CLR 08/08 A3030 RMK AO2 RVRNO =
2017-10-22 06:19 METAR KUCP 221019Z AUTO 00000KT 1 1/4SM BR FEW003 08/08 A3030 RMK AO2 =
2017-10-22 05:56 METAR KUCP 220956Z AUTO 00000KT 2SM BR CLR 08/08 A3030 RMK AO2 VIS 1 1/4V4
                 SLP275 T00780078 =
2017-10-22 05:46 METAR KUCP 220946Z AUTO 00000KT 3SM BR CLR 09/09 A3030 RMK AO2 =
2017-10-22 05:34 METAR KUCP 220934Z AUTO 00000KT 1 3/4SM BR CLR 07/07 A3030 RMK AO2 =
2017-10-22 04:56 METAR KUCP 220856Z AUTO 00000KT 4SM BR CLR 09/09 A3029 RMK AO2 SLP271 T00890089
                 53010 =
2017-10-22 04:43 METAR KUCP 220843Z AUTO 00000KT 3SM BR CLR 09/09 A3029 RMK AO2 =
2017-10-22 04:33 METAR KUCP 220833Z AUTO 00000KT 1 1/4SM BR CLR 08/08 A3028 RMK AO2 TSNO =
2017-10-22 04:30 METAR KUCP 220830Z AUTO 00000KT 3/4SM BR CLR 08/08 A3028 RMK AO2 RVRNO =
2017-10-22 04:22 METAR KUCP 220822Z AUTO 00000KT 1/2SM FG VV004 09/09 A3028 RMK AO2 RVRNO =
2017-10-22 04:19 METAR KUCP 220819Z AUTO 00000KT 1SM BR CLR 08/08 A3028 RMK AO2 VIS 1/4V4 RVRNO =
2017-10-22 04:05 METAR KUCP 220805Z AUTO 00000KT 2SM BR CLR 09/09 A3027 RMK AO2 VIS 1V3 =
2017-10-22 03:56 METAR KUCP 220756Z AUTO 00000KT 1SM BR CLR 09/09 A3027 RMK AO2 SLP265 T00940094
                 RVRNO =
2017-10-22 03:35 METAR KUCP 220735Z AUTO 00000KT 1 3/4SM BR CLR 09/09 A3027 RMK AO2 =
2017-10-22 02:56 METAR KUCP 220656Z AUTO 00000KT 8SM CLR 10/10 A3026 RMK AO2 SLP260 T01000100 =
2017-10-22 01:56 METAR KUCP 220556Z AUTO 00000KT 10SM CLR 10/10 A3026 RMK AO2 SLP260 T01000100
                 10172 20100 55005 =
2017-10-22 01:43 METAR KUCP 220543Z AUTO 00000KT 4SM BR CLR 10/10 A3026 RMK AO2 =
2017-10-22 01:31 METAR KUCP 220531Z AUTO 00000KT 1 3/4SM BR CLR 10/10 A3026 RMK AO2 =
2017-10-22 00:56 METAR KUCP 220456Z AUTO 00000KT 10SM CLR 11/11 A3026 RMK AO2 SLP260 T01110106
                 402330033 =
2017-10-22 00:16 METAR KUCP 220416Z AUTO 00000KT 3SM BR CLR 10/10 A3026 RMK AO2 =
2017-10-22 00:00 METAR KUCP 220400Z AUTO 00000KT 1 3/4SM BR CLR 11/11 A3026 RMK AO2 VIS 1V4 =
2017-10-21 23:56 METAR KUCP 220356Z AUTO 00000KT 3SM BR CLR 11/11 A3026 RMK AO2 SLP263 T01110111
                 =
2017-10-21 22:56 METAR KUCP 220256Z AUTO 00000KT 10SM CLR 12/11 A3028 RMK AO2 SLP268 T01220111
                 50004 =
2017-10-21 21:56 METAR KUCP 220156Z AUTO 00000KT 10SM CLR 13/12 A3028 RMK AO2 SLP270 T01330117 =
2017-10-21 20:56 METAR KUCP 220056Z AUTO 00000KT 10SM CLR 16/12 A3028 RMK AO2 SLP270 T01610117 =

Support USWX by starting your Amazon purchase here.